Time;durP1;ratioP1;P1;durP2;ratioP2;P2;SDS_P1;SDS_P2;PMS_P1;PMS_P2;Temp;Humidity;BMP_temperature;BMP_pressure;BME280_temperature;BME280_humidity;BME280_pressure;Samples;Min_cycle;Max_cycle;Signal;HPM_P1;HPM_P2
2023/11/09 00:00:33;;;;;;;912.60;841.10;;;9.60;99.90;;;;;;5013467;28;20463;-79
2023/11/09 00:03:00;;;;;;;919.17;851.07;;;9.70;99.90;;;;;;5013370;28;20476;-79
2023/11/09 00:05:27;;;;;;;916.90;849.90;;;9.70;99.90;;;;;;5012969;28;20455;-81
2023/11/09 00:07:54;;;;;;;918.53;856.03;;;9.70;99.90;;;;;;5013062;28;20449;-80
2023/11/09 00:10:21;;;;;;;914.93;855.60;;;9.80;99.90;;;;;;5013086;28;20809;-78
2023/11/09 00:12:50;;;;;;;912.20;853.80;;;9.80;99.90;;;;;;5013076;28;20493;-78
2023/11/09 00:15:20;;;;;;;897.80;842.20;;;9.80;99.90;;;;;;5013156;28;20943;-80
2023/11/09 00:17:49;;;;;;;893.40;839.20;;;9.80;99.90;;;;;;5013056;28;20502;-82
2023/11/09 00:20:17;;;;;;;902.53;847.53;;;9.80;99.90;;;;;;5012711;28;20487;-85
2023/11/09 00:22:46;;;;;;;910.63;854.03;;;9.80;99.90;;;;;;5013034;28;20468;-85
2023/11/09 00:25:13;;;;;;;916.60;857.03;;;9.70;99.90;;;;;;5012345;28;20452;-85
2023/11/09 00:27:40;;;;;;;911.77;852.20;;;9.70;99.90;;;;;;5012574;28;20450;-87
2023/11/09 00:30:08;;;;;;;913.87;851.73;;;9.70;99.90;;;;;;5013193;28;20815;-85
2023/11/09 00:32:36;;;;;;;912.80;850.80;;;9.60;99.90;;;;;;5013252;28;20854;-85
2023/11/09 00:35:08;;;;;;;907.10;846.83;;;9.60;99.90;;;;;;5012894;28;20460;-84
2023/11/09 00:37:37;;;;;;;902.97;840.30;;;9.60;99.90;;;;;;5012883;28;20957;-84
2023/11/09 00:40:05;;;;;;;905.23;840.70;;;9.60;99.90;;;;;;5012900;28;20925;-88
2023/11/09 00:42:33;;;;;;;912.03;846.17;;;9.50;99.90;;;;;;5012827;28;20482;-85
2023/11/09 00:45:00;;;;;;;916.63;847.37;;;9.50;99.90;;;;;;5013005;28;20463;-86
2023/11/09 00:47:27;;;;;;;911.57;840.63;;;9.50;99.90;;;;;;5012849;28;20966;-86
2023/11/09 00:49:54;;;;;;;917.83;842.70;;;9.50;99.90;;;;;;5012792;28;20458;-84
2023/11/09 00:52:22;;;;;;;925.90;846.20;;;9.50;99.90;;;;;;5012622;28;20525;-84
2023/11/09 00:54:49;;;;;;;921.30;841.83;;;9.50;99.90;;;;;;5012864;28;20821;-84
2023/11/09 00:57:16;;;;;;;917.57;837.33;;;9.40;99.90;;;;;;5012694;28;20553;-85
2023/11/09 00:59:46;;;;;;;924.67;841.97;;;9.50;99.90;;;;;;5012758;28;20452;-82
2023/11/09 01:02:13;;;;;;;934.27;848.97;;;9.50;99.90;;;;;;5012604;28;20489;-80
2023/11/09 01:04:40;;;;;;;914.47;830.10;;;9.50;99.90;;;;;;5012323;28;20936;-79
2023/11/09 01:07:08;;;;;;;916.37;829.87;;;9.50;99.90;;;;;;5012045;28;20464;-79
2023/11/09 01:09:37;;;;;;;913.90;827.20;;;9.50;99.90;;;;;;5012177;28;20513;-78
2023/11/09 01:12:04;;;;;;;912.43;825.27;;;9.60;99.90;;;;;;5012466;28;20813;-78
2023/11/09 01:14:31;;;;;;;918.40;829.50;;;9.50;99.90;;;;;;5012085;28;20940;-77
2023/11/09 01:16:58;;;;;;;928.43;839.37;;;9.60;99.90;;;;;;5011667;28;20454;-77
2023/11/09 01:19:25;;;;;;;918.17;829.30;;;9.60;99.90;;;;;;5011922;28;20455;-77
2023/11/09 01:21:51;;;;;;;917.83;829.77;;;9.60;99.90;;;;;;5011873;28;20478;-77
2023/11/09 01:24:18;;;;;;;917.63;832.03;;;9.60;99.90;;;;;;5012138;28;20804;-77
2023/11/09 01:26:47;;;;;;;915.73;829.70;;;9.60;99.90;;;;;;5012330;28;20462;-77
2023/11/09 01:29:14;;;;;;;920.87;835.40;;;9.60;99.90;;;;;;5011972;28;20451;-77
2023/11/09 01:31:40;;;;;;;916.90;831.30;;;9.60;99.90;;;;;;5011906;28;20455;-76
2023/11/09 01:34:09;;;;;;;918.60;833.80;;;9.60;99.90;;;;;;5011850;28;20456;-76
2023/11/09 01:36:37;;;;;;;915.67;830.97;;;9.60;99.90;;;;;;5012256;28;20457;-77
2023/11/09 01:39:04;;;;;;;920.40;837.33;;;9.70;99.90;;;;;;5016086;28;20874;-77
2023/11/09 01:41:31;;;;;;;920.97;835.70;;;9.70;99.90;;;;;;5015956;28;20796;-77
2023/11/09 01:44:00;;;;;;;923.90;838.60;;;9.70;99.90;;;;;;5015739;28;20458;-79
2023/11/09 01:46:28;;;;;;;924.03;838.63;;;9.70;99.90;;;;;;5015873;28;20459;-78
2023/11/09 01:48:57;;;;;;;918.17;834.40;;;9.80;99.90;;;;;;5015844;28;20473;-78
2023/11/09 01:51:24;;;;;;;927.10;843.50;;;9.80;99.90;;;;;;5016047;28;20550;-77
2023/11/09 01:53:51;;;;;;;922.40;840.50;;;9.80;99.90;;;;;;5015932;28;20458;-77
2023/11/09 01:56:19;;;;;;;926.00;843.40;;;9.80;99.90;;;;;;5015371;28;20951;-77
2023/11/09 01:58:48;;;;;;;924.33;843.60;;;9.80;99.90;;;;;;5015114;28;20456;-77
2023/11/09 02:01:18;;;;;;;927.83;847.87;;;9.80;99.90;;;;;;5015327;28;20502;-77
2023/11/09 02:03:45;;;;;;;932.70;853.30;;;9.80;99.90;;;;;;5015156;28;20975;-76
2023/11/09 02:06:12;;;;;;;923.97;847.77;;;9.90;99.90;;;;;;5015577;28;20467;-76
2023/11/09 02:08:40;;;;;;;926.57;853.00;;;9.90;99.90;;;;;;5015448;28;20463;-76
2023/11/09 02:11:07;;;;;;;927.43;854.93;;;10.00;99.90;;;;;;5015478;28;20451;-76
2023/11/09 02:13:34;;;;;;;930.07;861.27;;;10.00;99.90;;;;;;5015162;28;20454;-76
2023/11/09 02:16:02;;;;;;;924.90;859.83;;;10.00;99.90;;;;;;5015215;28;20513;-77
2023/11/09 02:18:32;;;;;;;935.70;871.40;;;10.10;99.90;;;;;;5015323;28;20451;-75
2023/11/09 02:20:59;;;;;;;936.00;875.10;;;10.10;99.90;;;;;;5015487;28;20759;-74
2023/11/09 02:23:30;;;;;;;934.77;874.67;;;10.20;99.90;;;;;;5015156;28;20567;-74
2023/11/09 02:25:59;;;;;;;937.57;878.37;;;10.20;99.90;;;;;;5014896;28;20454;-74
2023/11/09 02:28:26;;;;;;;937.57;879.87;;;10.20;99.90;;;;;;5015315;28;20459;-74
2023/11/09 02:30:53;;;;;;;934.33;879.07;;;10.20;99.90;;;;;;5015264;28;20462;-74
2023/11/09 02:33:20;;;;;;;920.57;867.00;;;10.20;99.90;;;;;;5015394;28;20448;-74
2023/11/09 02:35:47;;;;;;;910.30;858.90;;;10.30;99.90;;;;;;5015357;28;20455;-74
2023/11/09 02:38:14;;;;;;;916.80;864.80;;;10.30;99.90;;;;;;5015122;28;20527;-74
2023/11/09 02:40:40;;;;;;;911.10;860.37;;;10.30;99.90;;;;;;5015125;28;20522;-74
2023/11/09 02:43:09;;;;;;;905.03;855.43;;;10.30;99.90;;;;;;5015043;28;20475;-74
2023/11/09 02:45:35;;;;;;;889.40;841.70;;;10.30;99.90;;;;;;5014907;28;20449;-74
2023/11/09 02:48:03;;;;;;;890.97;842.83;;;10.30;99.90;;;;;;5014311;28;20465;-74
2023/11/09 02:50:30;;;;;;;900.40;851.93;;;10.30;99.90;;;;;;5014730;28;20448;-74
2023/11/09 02:52:57;;;;;;;879.57;833.93;;;10.30;99.90;;;;;;5014741;28;20445;-74
2023/11/09 02:55:24;;;;;;;865.93;822.53;;;10.40;99.90;;;;;;5014685;28;20441;-75
2023/11/09 02:57:51;;;;;;;858.83;815.77;;;10.40;99.90;;;;;;5014390;28;20461;-74
2023/11/09 03:00:19;;;;;;;858.50;816.00;;;10.50;99.90;;;;;;5014482;28;20482;-75
2023/11/09 03:02:46;;;;;;;855.70;813.30;;;10.50;99.90;;;;;;5014521;28;20472;-74
2023/11/09 03:05:17;;;;;;;853.77;812.57;;;10.50;99.90;;;;;;5014085;28;20953;-74
2023/11/09 03:07:44;;;;;;;864.33;822.10;;;10.60;99.90;;;;;;5014239;28;20446;-74
2023/11/09 03:10:11;;;;;;;839.87;801.67;;;10.50;99.90;;;;;;5014172;28;20532;-74
2023/11/09 03:12:38;;;;;;;838.03;799.37;;;10.60;99.90;;;;;;5014543;28;20446;-75
2023/11/09 03:15:09;;;;;;;793.83;759.33;;;10.60;99.90;;;;;;5014182;28;20452;-75
2023/11/09 03:17:38;;;;;;;783.87;750.57;;;10.60;99.90;;;;;;5014006;28;20545;-75
2023/11/09 03:20:08;;;;;;;747.07;716.47;;;10.60;99.90;;;;;;5013803;28;20480;-75
2023/11/09 03:22:35;;;;;;;748.27;717.83;;;10.60;99.90;;;;;;5011733;28;20477;-74
2023/11/09 03:25:02;;;;;;;706.63;678.83;;;10.60;99.90;;;;;;5014043;28;20511;-75
2023/11/09 03:27:29;;;;;;;682.93;656.30;;;10.60;99.90;;;;;;5013498;28;20457;-75
2023/11/09 03:29:55;;;;;;;700.40;672.60;;;10.60;99.90;;;;;;5013738;28;20453;-74
2023/11/09 03:32:23;;;;;;;664.47;639.10;;;10.60;99.90;;;;;;5013555;28;20960;-74
2023/11/09 03:34:51;;;;;;;577.23;556.60;;;10.60;99.90;;;;;;5013410;28;20455;-74
2023/11/09 03:37:18;;;;;;;570.83;550.07;;;10.60;99.90;;;;;;5013586;28;21020;-74
2023/11/09 03:39:44;;;;;;;489.27;472.67;;;10.60;99.90;;;;;;5014206;28;20449;-74
2023/11/09 03:42:14;;;;;;;490.37;473.57;;;10.70;99.90;;;;;;5013784;28;20462;-75
2023/11/09 03:44:41;;;;;;;457.30;441.77;;;10.70;99.90;;;;;;5012368;28;20450;-74
2023/11/09 03:47:08;;;;;;;449.13;433.83;;;10.60;99.90;;;;;;5014316;28;20804;-74
2023/11/09 03:49:40;;;;;;;237.37;229.50;;;10.60;99.90;;;;;;5013223;28;20849;-74
2023/11/09 03:52:09;;;;;;;309.97;299.57;;;10.70;99.90;;;;;;5013447;28;20453;-75
2023/11/09 03:54:36;;;;;;;300.03;289.87;;;10.60;99.90;;;;;;5013704;28;20454;-74
2023/11/09 03:57:03;;;;;;;307.30;296.63;;;10.60;99.90;;;;;;5013075;28;20470;-74
2023/11/09 03:59:30;;;;;;;254.73;245.70;;;10.60;99.90;;;;;;5012343;28;20507;-74
2023/11/09 04:01:57;;;;;;;294.17;284.10;;;10.60;99.90;;;;;;5013216;28;20457;-74
2023/11/09 04:04:24;;;;;;;280.10;270.37;;;10.60;99.90;;;;;;5012605;28;20540;-74
2023/11/09 04:06:50;;;;;;;253.83;245.23;;;10.70;99.90;;;;;;5012803;28;20472;-74
2023/11/09 04:09:19;;;;;;;291.00;281.17;;;10.70;99.90;;;;;;5012709;28;20450;-74
2023/11/09 04:11:46;;;;;;;312.60;301.90;;;10.70;99.90;;;;;;5012767;28;20477;-74
2023/11/09 04:14:13;;;;;;;321.90;309.87;;;10.70;99.90;;;;;;5013025;28;20473;-74
2023/11/09 04:16:40;;;;;;;322.60;311.23;;;10.70;99.90;;;;;;5012863;28;20459;-74
2023/11/09 04:19:08;;;;;;;260.87;251.60;;;10.70;99.90;;;;;;5012334;28;20456;-73
2023/11/09 04:21:35;;;;;;;265.97;256.80;;;10.70;99.90;;;;;;5012943;28;20453;-73
2023/11/09 04:24:02;;;;;;;252.20;243.70;;;10.70;99.90;;;;;;5013194;28;20484;-73
2023/11/09 04:26:32;;;;;;;250.37;241.67;;;10.80;99.90;;;;;;5013199;28;20540;-73
2023/11/09 04:28:59;;;;;;;224.73;217.13;;;10.80;99.90;;;;;;5013112;28;20661;-73
2023/11/09 04:31:26;;;;;;;190.70;184.27;;;10.80;99.90;;;;;;5013179;28;20540;-73
2023/11/09 04:33:54;;;;;;;159.97;154.63;;;10.80;99.90;;;;;;5012693;28;20637;-73
2023/11/09 04:36:23;;;;;;;162.20;156.80;;;10.90;99.90;;;;;;5013215;28;20456;-73
2023/11/09 04:38:52;;;;;;;142.43;137.67;;;10.80;99.90;;;;;;5012930;28;20918;-73
2023/11/09 04:41:19;;;;;;;142.73;137.80;;;10.80;99.90;;;;;;5013050;28;20482;-73
2023/11/09 04:43:47;;;;;;;133.93;129.47;;;10.80;99.90;;;;;;5012779;28;20999;-73
2023/11/09 04:46:17;;;;;;;129.30;125.00;;;10.80;99.90;;;;;;5012533;28;20460;-73
2023/11/09 04:48:48;;;;;;;127.90;123.67;;;10.80;99.90;;;;;;5012591;28;20460;-73
2023/11/09 04:51:22;;;;;;;117.03;113.13;;;10.80;99.90;;;;;;5012944;28;20461;-73
2023/11/09 04:53:51;;;;;;;111.73;108.03;;;10.80;99.90;;;;;;5012879;28;20498;-73
2023/11/09 04:56:38;;;;;;;124.23;120.13;;;10.70;99.90;;;;;;5012659;28;20514;-73
2023/11/09 05:07:16;;;;;;;115.50;111.70;;;10.70;99.90;;;;;;5011906;28;20447;-73
2023/11/09 05:09:46;;;;;;;121.53;117.50;;;10.70;99.90;;;;;;5012621;28;20820;-74
2023/11/09 05:12:13;;;;;;;173.37;167.60;;;10.60;99.90;;;;;;5012501;28;20540;-76
2023/11/09 05:14:41;;;;;;;233.20;225.90;;;10.50;99.90;;;;;;5012288;28;20437;-76
2023/11/09 05:17:08;;;;;;;311.53;301.73;;;10.40;99.90;;;;;;5011450;28;20452;-77
2023/11/09 05:19:35;;;;;;;421.73;402.63;;;10.30;99.90;;;;;;5011995;28;20459;-78
2023/11/09 05:22:02;;;;;;;476.53;460.53;;;10.30;99.90;;;;;;5010818;28;21079;-80
2023/11/09 05:24:29;;;;;;;595.67;574.37;;;10.20;99.90;;;;;;5010946;28;20472;-83
2023/11/09 05:26:56;;;;;;;673.53;648.27;;;10.10;99.90;;;;;;5011736;28;20458;-84
2023/11/09 05:29:24;;;;;;;672.10;647.13;;;10.00;99.90;;;;;;5012351;28;20453;-84
2023/11/09 05:31:52;;;;;;;752.93;721.73;;;10.00;99.90;;;;;;5011531;28;20935;-85
2023/11/09 05:34:19;;;;;;;797.60;761.00;;;9.90;99.90;;;;;;5011663;28;20453;-84
2023/11/09 05:36:45;;;;;;;802.83;766.63;;;9.80;99.90;;;;;;5012463;28;20448;-82
2023/11/09 05:39:14;;;;;;;835.83;793.83;;;9.80;99.90;;;;;;5012181;28;20462;-82
2023/11/09 05:41:41;;;;;;;849.07;804.37;;;9.70;99.90;;;;;;5012369;28;20449;-82
2023/11/09 05:44:08;;;;;;;831.53;789.03;;;9.70;99.90;;;;;;5012049;28;20483;-81
2023/11/09 05:46:36;;;;;;;862.93;813.97;;;9.70;99.90;;;;;;5011365;28;20874;-83
2023/11/09 05:49:05;;;;;;;867.77;817.90;;;9.60;99.90;;;;;;5011677;28;20457;-85
2023/11/09 05:51:32;;;;;;;853.57;805.07;;;9.60;99.90;;;;;;5011819;28;20825;-85
2023/11/09 05:53:59;;;;;;;868.50;814.70;;;9.60;99.90;;;;;;5012179;28;20798;-83
2023/11/09 05:56:28;;;;;;;873.13;817.23;;;9.60;99.90;;;;;;5012025;28;20451;-84
2023/11/09 05:58:54;;;;;;;878.60;821.00;;;9.60;99.90;;;;;;5010951;28;20473;-82
2023/11/09 06:01:22;;;;;;;886.87;824.60;;;9.60;99.90;;;;;;5011038;28;20453;-81
2023/11/09 06:03:49;;;;;;;874.17;813.40;;;9.60;99.90;;;;;;5011721;28;20475;-83
2023/11/09 06:06:17;;;;;;;892.17;826.90;;;9.70;99.90;;;;;;5011748;28;20460;-84
2023/11/09 06:08:44;;;;;;;878.33;815.97;;;9.60;99.90;;;;;;5011226;28;20463;-83
2023/11/09 06:11:11;;;;;;;881.40;817.90;;;9.70;99.90;;;;;;5011430;28;20717;-85
2023/11/09 06:13:38;;;;;;;891.10;824.83;;;9.60;99.90;;;;;;5000690;28;20452;-81
2023/11/09 06:16:05;;;;;;;890.37;821.57;;;9.60;99.90;;;;;;5011499;28;20453;-80
2023/11/09 06:18:32;;;;;;;894.13;823.27;;;9.60;99.90;;;;;;5011143;28;20800;-79
2023/11/09 06:21:00;;;;;;;894.53;818.93;;;9.60;99.90;;;;;;5011252;28;21042;-79
2023/11/09 06:23:29;;;;;;;913.20;836.47;;;9.60;99.90;;;;;;5012729;28;20477;-81
2023/11/09 06:25:56;;;;;;;963.57;881.97;;;9.60;99.90;;;;;;5014909;28;20463;-81
2023/11/09 06:28:23;;;;;;;936.60;855.57;;;9.60;99.90;;;;;;5014454;28;20455;-80
2023/11/09 06:30:50;;;;;;;933.03;850.67;;;9.60;99.90;;;;;;5014852;28;20458;-79
2023/11/09 06:33:17;;;;;;;923.23;839.67;;;9.60;99.90;;;;;;5015218;28;20502;-79
2023/11/09 06:35:46;;;;;;;921.47;837.43;;;9.60;99.90;;;;;;5015373;28;20452;-78
2023/11/09 06:38:13;;;;;;;919.67;835.77;;;9.60;99.90;;;;;;5015097;28;20455;-78
2023/11/09 06:40:42;;;;;;;949.57;863.40;;;9.60;99.90;;;;;;5014706;28;20456;-78
2023/11/09 06:43:09;;;;;;;971.73;882.87;;;9.60;99.90;;;;;;5014060;28;20455;-78
2023/11/09 06:45:36;;;;;;;974.40;884.83;;;9.60;99.90;;;;;;5014455;28;20452;-78
2023/11/09 06:48:03;;;;;;;980.67;891.50;;;9.60;99.90;;;;;;5014194;28;20875;-77
2023/11/09 06:50:30;;;;;;;1002.43;910.77;;;9.60;99.90;;;;;;5014057;28;20456;-77
2023/11/09 06:52:57;;;;;;;1007.23;914.07;;;9.60;99.90;;;;;;5014652;28;20911;-77
2023/11/09 06:55:24;;;;;;;1022.07;926.57;;;9.60;99.90;;;;;;5014098;28;20451;-77
2023/11/09 06:57:54;;;;;;;1022.43;926.93;;;9.60;99.90;;;;;;5013310;28;20513;-77
2023/11/09 07:00:23;;;;;;;1025.97;928.97;;;9.60;99.90;;;;;;5014020;28;20519;-77
2023/11/09 07:02:50;;;;;;;1024.93;927.13;;;9.60;99.90;;;;;;5013413;28;20457;-77
2023/11/09 07:05:19;;;;;;;1033.30;936.60;;;9.60;99.90;;;;;;5013916;28;20847;-77
2023/11/09 07:07:49;;;;;;;1043.37;946.67;;;9.70;99.90;;;;;;5013219;28;20471;-77
2023/11/09 07:10:16;;;;;;;1037.93;941.03;;;9.70;99.90;;;;;;5013235;28;20505;-78
2023/11/09 07:12:43;;;;;;;1088.37;990.27;;;9.70;99.90;;;;;;5013348;28;20463;-78
2023/11/09 07:15:13;;;;;;;1055.37;957.77;;;9.70;99.90;;;;;;5014474;28;20828;-78
2023/11/09 07:17:40;;;;;;;1053.40;957.23;;;9.70;99.90;;;;;;5014330;28;20454;-79
2023/11/09 07:20:10;;;;;;;1069.37;972.23;;;9.80;99.90;;;;;;5014146;28;20829;-78
2023/11/09 07:22:37;;;;;;;1043.23;948.13;;;9.80;99.90;;;;;;5014451;28;20542;-78
2023/11/09 07:25:05;;;;;;;1059.05;958.08;;;9.80;99.90;;;;;;5012735;28;20455;-79
2023/11/09 07:27:31;;;;;;;1065.50;964.00;;;9.80;99.90;;;;;;5013414;28;20458;-77
2023/11/09 07:29:59;;;;;;;938.40;846.00;;;9.80;99.90;;;;;;5013885;28;20670;-78
2023/11/09 07:32:28;;;;;;;950.60;857.00;;;9.90;99.90;;;;;;5013226;28;20449;-77
2023/11/09 07:34:55;;;;;;;957.13;863.87;;;9.90;99.90;;;;;;5012978;28;20452;-77
2023/11/09 07:37:22;;;;;;;946.93;852.67;;;9.90;99.90;;;;;;5014262;28;20460;-77
2023/11/09 07:39:49;;;;;;;934.33;840.10;;;9.90;99.90;;;;;;5014008;28;20457;-77
2023/11/09 07:42:15;;;;;;;942.77;849.57;;;9.90;99.90;;;;;;5014006;28;20457;-77
2023/11/09 07:44:42;;;;;;;933.13;840.40;;;9.90;99.90;;;;;;5013996;28;20477;-77
2023/11/09 07:47:09;;;;;;;997.80;903.07;;;9.90;99.90;;;;;;5013799;28;20455;-77
2023/11/09 07:49:37;;;;;;;956.17;861.20;;;9.90;99.90;;;;;;5013689;28;20868;-78
2023/11/09 07:52:05;;;;;;;1016.07;919.03;;;9.90;99.90;;;;;;5014078;28;20450;-77
2023/11/09 07:54:32;;;;;;;968.60;872.73;;;10.00;99.90;;;;;;5013781;28;20456;-77
2023/11/09 07:57:01;;;;;;;924.77;831.67;;;10.00;99.90;;;;;;5013758;28;20463;-77
2023/11/09 07:59:28;;;;;;;947.03;853.13;;;10.10;99.90;;;;;;5013799;28;20452;-77
2023/11/09 08:01:55;;;;;;;930.97;839.80;;;10.10;99.90;;;;;;5013546;28;21041;-77
2023/11/09 08:04:24;;;;;;;949.60;867.50;;;10.10;99.90;;;;;;5013586;28;20480;-78
2023/11/09 08:06:51;;;;;;;893.33;824.03;;;9.90;99.90;;;;;;5013575;28;20464;-78
2023/11/09 08:09:19;;;;;;;873.73;806.20;;;9.80;99.90;;;;;;5013309;28;20570;-77
2023/11/09 08:11:47;;;;;;;862.27;800.77;;;9.70;99.90;;;;;;5013603;28;20487;-77
2023/11/09 08:14:14;;;;;;;874.67;811.43;;;9.60;99.90;;;;;;5013440;28;20546;-77
2023/11/09 08:16:41;;;;;;;851.13;793.83;;;9.60;99.90;;;;;;5012862;28;20459;-77
2023/11/09 08:19:08;;;;;;;858.45;797.28;;;9.60;99.90;;;;;;5013018;28;20454;-76
2023/11/09 08:21:36;;;;;;;840.10;786.23;;;9.60;99.90;;;;;;5013711;28;20206;-76
2023/11/09 08:24:05;;;;;;;849.50;796.13;;;9.60;99.90;;;;;;5013608;28;20538;-77
2023/11/09 08:26:32;;;;;;;843.88;784.97;;;9.60;99.90;;;;;;5012536;28;20450;-78
2023/11/09 08:28:59;;;;;;;856.43;798.77;;;9.70;99.90;;;;;;5013238;28;20209;-77
2023/11/09 08:31:26;;;;;;;860.37;800.43;;;9.70;99.90;;;;;;5013648;28;20460;-78
2023/11/09 08:33:54;;;;;;;864.67;803.97;;;9.70;99.90;;;;;;5013462;28;20540;-77
2023/11/09 08:36:21;;;;;;;865.43;803.43;;;9.70;99.90;;;;;;5013030;28;20456;-77
2023/11/09 08:38:48;;;;;;;873.47;811.40;;;9.70;99.90;;;;;;5012890;28;20442;-77
2023/11/09 08:41:16;;;;;;;877.83;815.00;;;9.70;99.90;;;;;;5012811;28;20459;-76
2023/11/09 08:43:44;;;;;;;890.40;828.43;;;9.80;99.90;;;;;;5012747;28;20452;-76
2023/11/09 08:46:11;;;;;;;886.33;826.20;;;9.80;99.90;;;;;;5011051;28;20458;-76
2023/11/09 08:48:40;;;;;;;883.00;824.07;;;9.90;99.90;;;;;;5012720;28;20551;-76
2023/11/09 08:51:10;;;;;;;887.20;824.40;;;9.90;99.90;;;;;;5012564;28;20467;-76
2023/11/09 08:53:37;;;;;;;874.70;815.70;;;10.10;99.90;;;;;;5012402;28;20459;-76
2023/11/09 08:56:06;;;;;;;866.27;809.83;;;10.20;99.90;;;;;;5012546;28;20460;-76
2023/11/09 08:58:36;;;;;;;848.00;796.33;;;10.30;99.90;;;;;;5011519;28;20507;-76
2023/11/09 09:01:04;;;;;;;858.17;806.50;;;10.40;99.90;;;;;;5012730;28;20945;-76
2023/11/09 09:03:32;;;;;;;859.67;810.07;;;10.40;99.90;;;;;;5012755;28;20451;-76
2023/11/09 09:05:59;;;;;;;849.90;804.57;;;10.40;99.90;;;;;;5012627;28;20555;-76
2023/11/09 09:08:26;;;;;;;828.93;786.10;;;10.30;99.90;;;;;;5012403;28;20551;-76
2023/11/09 09:10:55;;;;;;;824.13;784.43;;;10.40;99.90;;;;;;5012439;28;20481;-76
2023/11/09 09:13:23;;;;;;;825.83;785.40;;;10.40;99.90;;;;;;5012468;28;20450;-75
2023/11/09 09:15:53;;;;;;;807.60;769.90;;;10.50;99.90;;;;;;4997851;28;20458;-75
2023/11/09 09:18:20;;;;;;;743.87;712.93;;;10.60;99.90;;;;;;4992489;28;20455;-75
2023/11/09 09:20:48;;;;;;;666.30;641.37;;;10.60;99.90;;;;;;4992501;28;20460;-75
2023/11/09 09:23:16;;;;;;;680.20;654.00;;;10.70;99.90;;;;;;4992203;28;20450;-74
2023/11/09 09:25:44;;;;;;;410.53;397.50;;;10.70;99.90;;;;;;4992288;28;21020;-74
2023/11/09 09:28:11;;;;;;;358.30;346.80;;;10.80;99.90;;;;;;4992650;28;20488;-74
2023/11/09 09:30:38;;;;;;;222.43;215.03;;;10.80;99.90;;;;;;4992694;28;20810;-74
2023/11/09 09:33:07;;;;;;;188.07;181.87;;;10.90;99.90;;;;;;4992432;28;20458;-74
2023/11/09 09:35:34;;;;;;;73.03;70.13;;;11.10;99.90;;;;;;4991739;28;21018;-74
2023/11/09 09:38:01;;;;;;;223.03;215.53;;;11.10;99.90;;;;;;4992287;28;20835;-74
2023/11/09 09:40:29;;;;;;;92.07;88.27;;;11.20;99.90;;;;;;4992216;28;20969;-74
2023/11/09 09:42:57;;;;;;;64.00;61.13;;;11.30;99.90;;;;;;4992228;28;20456;-74
2023/11/09 09:45:27;;;;;;;38.10;35.90;;;11.30;99.90;;;;;;4992041;28;20484;-74
2023/11/09 09:47:56;;;;;;;24.27;22.87;;;11.40;99.90;;;;;;4991924;28;20466;-74
2023/11/09 09:50:26;;;;;;;13.77;11.13;;;11.40;99.90;;;;;;4992402;28;20867;-74
2023/11/09 09:52:56;;;;;;;18.13;16.43;;;11.30;99.90;;;;;;4992290;28;20489;-74
2023/11/09 09:55:24;;;;;;;26.80;24.57;;;11.20;99.90;;;;;;4992308;28;20447;-74
2023/11/09 09:57:52;;;;;;;18.87;16.90;;;11.10;99.90;;;;;;4992495;28;20813;-74
2023/11/09 10:00:25;;;;;;;25.00;23.13;;;11.00;99.90;;;;;;4995626;28;20546;-74
2023/11/09 10:02:54;;;;;;;32.10;30.13;;;11.00;99.90;;;;;;4996144;28;20455;-74
2023/11/09 10:05:24;;;;;;;31.27;28.70;;;11.00;99.90;;;;;;4995835;28;21053;-74
2023/11/09 10:08:08;;;;;;;69.77;66.60;;;11.20;99.90;;;;;;4995663;28;20500;-74
2023/11/09 10:10:38;;;;;;;83.53;79.13;;;11.30;99.90;;;;;;4995650;28;20455;-74
2023/11/09 10:13:07;;;;;;;63.03;59.13;;;11.40;99.90;;;;;;4995994;28;20468;-74
2023/11/09 10:15:35;;;;;;;75.93;72.93;;;11.50;99.90;;;;;;4995434;28;20470;-74
2023/11/09 10:18:02;;;;;;;103.47;99.47;;;11.70;99.90;;;;;;4995300;28;21127;-74
2023/11/09 10:20:29;;;;;;;72.87;69.90;;;11.80;99.90;;;;;;4995717;28;20450;-74
2023/11/09 10:22:57;;;;;;;48.17;45.83;;;11.80;99.90;;;;;;4995556;28;20456;-74
2023/11/09 10:25:28;;;;;;;51.97;49.17;;;11.80;99.90;;;;;;4995250;28;20516;-74
2023/11/09 10:28:00;;;;;;;52.63;49.80;;;11.70;99.90;;;;;;4995651;28;20507;-73
2023/11/09 10:30:27;;;;;;;80.77;77.47;;;11.60;99.90;;;;;;4995913;28;20811;-73
2023/11/09 10:33:07;;;;;;;92.90;89.00;;;11.60;99.90;;;;;;4995443;28;20456;-73
2023/11/09 10:35:34;;;;;;;19.03;17.40;;;11.60;99.90;;;;;;4995188;28;20448;-73
2023/11/09 10:38:02;;;;;;;22.80;21.20;;;11.60;99.90;;;;;;4995400;28;20784;-73
2023/11/09 10:40:33;;;;;;;40.30;38.10;;;11.70;99.90;;;;;;4995283;28;20457;-73
2023/11/09 10:43:01;;;;;;;18.13;11.60;;;11.90;99.90;;;;;;4995209;28;20459;-73
2023/11/09 10:45:36;;;;;;;16.33;14.77;;;11.90;99.90;;;;;;4994942;28;20476;-73
2023/11/09 10:48:07;;;;;;;11.03;9.93;;;12.00;99.90;;;;;;4994907;28;20987;-73
2023/11/09 10:50:35;;;;;;;22.47;9.20;;;12.00;99.90;;;;;;4995238;28;20523;-73
2023/11/09 10:53:03;;;;;;;10.97;8.80;;;12.00;99.90;;;;;;4995185;28;20469;-73
2023/11/09 10:55:32;;;;;;;14.77;10.10;;;11.90;99.90;;;;;;4994970;28;20480;-73
2023/11/09 10:58:05;;;;;;;17.53;14.03;;;11.90;99.90;;;;;;4994716;28;20449;-74
2023/11/09 11:00:34;;;;;;;19.30;14.40;;;12.00;99.90;;;;;;4994640;28;20449;-73
2023/11/09 11:03:08;;;;;;;12.60;10.70;;;11.90;99.90;;;;;;4995925;28;20933;-73
2023/11/09 11:05:40;;;;;;;10.90;9.33;;;12.00;99.90;;;;;;5014085;28;20490;-73
2023/11/09 11:08:12;;;;;;;10.70;8.93;;;11.90;99.90;;;;;;5014213;28;20455;-73
2023/11/09 11:10:46;;;;;;;12.53;11.33;;;11.90;99.90;;;;;;5014299;28;20458;-73
2023/11/09 11:13:17;;;;;;;17.23;9.30;;;11.80;99.90;;;;;;5014012;28;20939;-73
2023/11/09 11:16:16;;;;;;;13.53;7.83;;;11.80;99.90;;;;;;5014383;28;20498;-73
2023/11/09 11:19:06;;;;;;;15.77;6.10;;;11.70;99.90;;;;;;5009594;28;20963;-73
2023/11/09 11:21:52;;;;;;;14.13;6.43;;;11.60;99.90;;;;;;5013894;28;20539;-73
2023/11/09 11:24:47;;;;;;;10.83;6.23;;;11.50;99.90;;;;;;5014297;28;20482;-73
2023/11/09 11:27:21;;;;;;;9.37;7.60;;;11.50;99.90;;;;;;5013931;28;20454;-73
2023/11/09 11:29:49;;;;;;;14.90;5.97;;;11.50;99.90;;;;;;5013879;28;20447;-73
2023/11/09 11:32:21;;;;;;;8.87;5.20;;;11.50;99.90;;;;;;5014064;28;20452;-73
2023/11/09 11:34:54;;;;;;;7.50;4.00;;;11.50;99.90;;;;;;5013756;28;20443;-73
2023/11/09 11:37:25;;;;;;;15.30;3.43;;;11.70;99.90;;;;;;5013745;28;20549;-73
2023/11/09 11:39:53;;;;;;;12.67;3.80;;;11.80;99.10;;;;;;5014116;28;20989;-73
2023/11/09 11:42:25;;;;;;;10.17;3.30;;;12.00;98.50;;;;;;5014233;28;20458;-72
2023/11/09 11:44:52;;;;;;;16.67;3.73;;;12.10;95.20;;;;;;5014605;28;20483;-72
2023/11/09 11:47:21;;;;;;;14.33;3.97;;;12.30;95.30;;;;;;5014299;28;20844;-73
2023/11/09 11:49:49;;;;;;;11.43;2.80;;;12.50;92.90;;;;;;5014265;28;20967;-72
2023/11/09 11:52:19;;;;;;;9.70;4.33;;;12.50;92.00;;;;;;5014452;28;20452;-72
2023/11/09 11:54:46;;;;;;;13.80;4.90;;;12.50;90.00;;;;;;5013963;28;20456;-72
2023/11/09 11:57:14;;;;;;;8.53;2.23;;;12.60;92.00;;;;;;5014109;28;20448;-72
2023/11/09 11:59:44;;;;;;;9.53;2.90;;;12.40;90.90;;;;;;5014175;28;20829;-72
2023/11/09 12:02:12;;;;;;;12.87;2.90;;;12.50;92.00;;;;;;5013866;28;20449;-71
2023/11/09 12:04:47;;;;;;;10.70;2.53;;;12.40;91.90;;;;;;5013652;28;20457;-71
2023/11/09 12:07:19;;;;;;;13.40;2.87;;;12.40;88.90;;;;;;5013664;28;20451;-71
2023/11/09 12:09:49;;;;;;;11.57;2.83;;;12.30;91.60;;;;;;5013531;28;20823;-71
2023/11/09 12:12:16;;;;;;;15.33;3.70;;;12.40;87.70;;;;;;5013930;28;20804;-71
2023/11/09 12:14:47;;;;;;;6.13;1.90;;;12.30;86.70;;;;;;5013803;28;20455;-71
2023/11/09 12:17:15;;;;;;;9.43;2.57;;;12.10;86.80;;;;;;5013902;28;20457;-71
2023/11/09 12:19:43;;;;;;;11.37;2.87;;;12.00;86.50;;;;;;5013717;28;20462;-71
2023/11/09 12:22:11;;;;;;;9.60;2.20;;;12.00;86.50;;;;;;5013134;28;20452;-71
2023/11/09 12:24:40;;;;;;;21.77;3.63;;;12.10;89.00;;;;;;5013766;28;20452;-71
2023/11/09 12:27:10;;;;;;;9.47;3.07;;;12.20;86.60;;;;;;5013591;28;20481;-71
2023/11/09 12:29:41;;;;;;;12.70;2.50;;;12.80;87.20;;;;;;5013370;28;20963;-71
2023/11/09 12:32:09;;;;;;;11.43;3.60;;;13.70;80.30;;;;;;5013147;28;20453;-71